sensor_id;sensor_type;location;lat;lon;timestamp;pressure;altitude;pressure_sealevel;temperature;humidity
42621;BME280;28252;53.336;-6.298;2022-10-24T00:00:11;98947.28;;;21.98;79.89
42621;BME280;28252;53.336;-6.298;2022-10-24T00:00:43;98941.03;;;21.97;79.82
42621;BME280;28252;53.336;-6.298;2022-10-24T00:01:15;98943.97;;;21.96;79.83
42621;BME280;28252;53.336;-6.298;2022-10-24T00:01:46;98939.41;;;21.96;79.80
42621;BME280;28252;53.336;-6.298;2022-10-24T00:02:17;98940.22;;;21.97;79.82
42621;BME280;28252;53.336;-6.298;2022-10-24T00:02:48;98945.63;;;21.97;79.75
42621;BME280;28252;53.336;-6.298;2022-10-24T00:03:19;98943.97;;;21.96;79.91
42621;BME280;28252;53.336;-6.298;2022-10-24T00:03:50;98946.44;;;21.97;79.76
42621;BME280;28252;53.336;-6.298;2022-10-24T00:04:21;98943.97;;;21.96;79.75
42621;BME280;28252;53.336;-6.298;2022-10-24T00:04:52;98941.25;;;21.96;79.84
42621;BME280;28252;53.336;-6.298;2022-10-24T00:05:23;98945.63;;;21.97;79.69
42621;BME280;28252;53.336;-6.298;2022-10-24T00:05:54;98940.22;;;21.97;79.75
42621;BME280;28252;53.336;-6.298;2022-10-24T00:06:24;98943.97;;;21.96;79.82
42621;BME280;28252;53.336;-6.298;2022-10-24T00:06:55;98941.25;;;21.96;79.71
42621;BME280;28252;53.336;-6.298;2022-10-24T00:07:26;98941.25;;;21.96;79.75
42621;BME280;28252;53.336;-6.298;2022-10-24T00:07:57;98938.53;;;21.96;79.71
42621;BME280;28252;53.336;-6.298;2022-10-24T00:08:28;98938.53;;;21.96;79.89
42621;BME280;28252;53.336;-6.298;2022-10-24T00:08:59;98941.47;;;21.94;79.83
42621;BME280;28252;53.336;-6.298;2022-10-24T00:09:30;98949.38;;;21.96;79.75
42621;BME280;28252;53.336;-6.298;2022-10-24T00:10:01;98943.97;;;21.96;79.77
42621;BME280;28252;53.336;-6.298;2022-10-24T00:10:32;98942.31;;;21.95;79.71
42621;BME280;28252;53.336;-6.298;2022-10-24T00:11:07;98943.97;;;21.96;79.76
42621;BME280;28252;53.336;-6.298;2022-10-24T00:11:40;98938.53;;;21.96;79.56
42621;BME280;28252;53.336;-6.298;2022-10-24T00:12:11;98944.19;;;21.94;79.61
42621;BME280;28252;53.336;-6.298;2022-10-24T00:12:42;98942.31;;;21.95;79.68
42621;BME280;28252;53.336;-6.298;2022-10-24T00:13:13;98939.63;;;21.95;79.59
42621;BME280;28252;53.336;-6.298;2022-10-24T00:13:44;98942.53;;;21.93;79.62
42621;BME280;28252;53.336;-6.298;2022-10-24T00:14:15;98944.41;;;21.93;79.62
42621;BME280;28252;53.336;-6.298;2022-10-24T00:14:47;98946.06;;;21.94;79.61
42621;BME280;28252;53.336;-6.298;2022-10-24T00:15:17;98945.25;;;21.93;79.48
42621;BME280;28252;53.336;-6.298;2022-10-24T00:15:48;98938.97;;;21.93;79.50
42621;BME280;28252;53.336;-6.298;2022-10-24T00:16:19;98944.19;;;21.94;79.48
42621;BME280;28252;53.336;-6.298;2022-10-24T00:16:51;98943.38;;;21.94;79.49
42621;BME280;28252;53.336;-6.298;2022-10-24T00:17:22;98941.47;;;21.94;79.65
42621;BME280;28252;53.336;-6.298;2022-10-24T00:17:52;98944.41;;;21.93;79.53
42621;BME280;28252;53.336;-6.298;2022-10-24T00:18:23;98948.19;;;21.92;79.45
42621;BME280;28252;53.336;-6.298;2022-10-24T00:18:54;98941.69;;;21.93;79.45
42621;BME280;28252;53.336;-6.298;2022-10-24T00:19:25;98945.25;;;21.93;79.45
42621;BME280;28252;53.336;-6.298;2022-10-24T00:19:56;98943.59;;;21.92;79.46
42621;BME280;28252;53.336;-6.298;2022-10-24T00:20:28;98951.50;;;21.94;79.51
42621;BME280;28252;53.336;-6.298;2022-10-24T00:20:59;98946.28;;;21.92;79.46
42621;BME280;28252;53.336;-6.298;2022-10-24T00:21:30;98949.00;;;21.92;79.42
42621;BME280;28252;53.336;-6.298;2022-10-24T00:22:01;98946.28;;;21.92;79.44
42621;BME280;28252;53.336;-6.298;2022-10-24T00:22:32;98949.81;;;21.93;79.43
42621;BME280;28252;53.336;-6.298;2022-10-24T00:23:03;98940.06;;;21.92;79.25
42621;BME280;28252;53.336;-6.298;2022-10-24T00:23:34;98953.59;;;21.92;79.34
42621;BME280;28252;53.336;-6.298;2022-10-24T00:24:06;98947.13;;;21.93;79.26
42621;BME280;28252;53.336;-6.298;2022-10-24T00:24:37;98942.78;;;21.92;79.46
42621;BME280;28252;53.336;-6.298;2022-10-24T00:25:08;98942.78;;;21.92;79.37
42621;BME280;28252;53.336;-6.298;2022-10-24T00:25:39;98945.47;;;21.92;79.35
42621;BME280;28252;53.336;-6.298;2022-10-24T00:26:10;98945.25;;;21.93;79.24
42621;BME280;28252;53.336;-6.298;2022-10-24T00:26:42;98955.25;;;21.93;79.28
42621;BME280;28252;53.336;-6.298;2022-10-24T00:27:12;98942.78;;;21.92;79.25
42621;BME280;28252;53.336;-6.298;2022-10-24T00:27:43;98946.28;;;21.92;79.12
42621;BME280;28252;53.336;-6.298;2022-10-24T00:28:14;98945.47;;;21.92;79.20
42621;BME280;28252;53.336;-6.298;2022-10-24T00:28:45;98938.16;;;21.92;79.16
42621;BME280;28252;53.336;-6.298;2022-10-24T00:29:16;98937.34;;;21.92;79.27
42621;BME280;28252;53.336;-6.298;2022-10-24T00:29:47;98940.06;;;21.92;79.17
42621;BME280;28252;53.336;-6.298;2022-10-24T00:30:18;98937.34;;;21.92;79.16
42621;BME280;28252;53.336;-6.298;2022-10-24T00:30:50;98935.69;;;21.91;79.20
42621;BME280;28252;53.336;-6.298;2022-10-24T00:31:21;98941.09;;;21.91;79.29
42621;BME280;28252;53.336;-6.298;2022-10-24T00:31:51;98935.69;;;21.91;79.24
42621;BME280;28252;53.336;-6.298;2022-10-24T00:32:22;98935.69;;;21.91;78.96
42621;BME280;28252;53.336;-6.298;2022-10-24T00:32:53;98941.09;;;21.91;79.12
42621;BME280;28252;53.336;-6.298;2022-10-24T00:33:24;98932.97;;;21.91;79.16
42621;BME280;28252;53.336;-6.298;2022-10-24T00:33:55;98934.84;;;21.90;79.22
42621;BME280;28252;53.336;-6.298;2022-10-24T00:34:26;98930.25;;;21.91;79.05
42621;BME280;28252;53.336;-6.298;2022-10-24T00:34:57;98934.63;;;21.92;79.16
42621;BME280;28252;53.336;-6.298;2022-10-24T00:35:28;98931.94;;;21.92;79.04
42621;BME280;28252;53.336;-6.298;2022-10-24T00:35:59;98931.06;;;21.91;79.20
42621;BME280;28252;53.336;-6.298;2022-10-24T00:36:30;98934.84;;;21.90;79.06
42621;BME280;28252;53.336;-6.298;2022-10-24T00:37:01;98931.94;;;21.92;79.13
42621;BME280;28252;53.336;-6.298;2022-10-24T00:37:33;98936.50;;;21.91;79.15
42621;BME280;28252;53.336;-6.298;2022-10-24T00:38:04;98936.50;;;21.91;79.05
42621;BME280;28252;53.336;-6.298;2022-10-24T00:38:35;98941.09;;;21.91;79.12
42621;BME280;28252;53.336;-6.298;2022-10-24T00:39:06;98939.47;;;21.90;79.04
42621;BME280;28252;53.336;-6.298;2022-10-24T00:39:37;98941.09;;;21.91;79.05
42621;BME280;28252;53.336;-6.298;2022-10-24T00:40:08;98940.28;;;21.90;79.09
42621;BME280;28252;53.336;-6.298;2022-10-24T00:40:40;98934.03;;;21.90;79.19
42621;BME280;28252;53.336;-6.298;2022-10-24T00:41:13;98939.47;;;21.90;79.05
42621;BME280;28252;53.336;-6.298;2022-10-24T00:41:44;98937.78;;;21.89;79.23
42621;BME280;28252;53.336;-6.298;2022-10-24T00:42:15;98935.09;;;21.89;79.21
42621;BME280;28252;53.336;-6.298;2022-10-24T00:42:47;98943.22;;;21.89;79.24
42621;BME280;28252;53.336;-6.298;2022-10-24T00:43:19;98935.09;;;21.89;79.29
42621;BME280;28252;53.336;-6.298;2022-10-24T00:43:50;98948.63;;;21.89;79.12
42621;BME280;28252;53.336;-6.298;2022-10-24T00:44:22;98942.16;;;21.90;79.06
42621;BME280;28252;53.336;-6.298;2022-10-24T00:44:54;98944.88;;;21.90;79.15
42621;BME280;28252;53.336;-6.298;2022-10-24T00:45:39;98943.22;;;21.89;79.20
42621;BME280;28252;53.336;-6.298;2022-10-24T00:46:10;98944.88;;;21.90;79.10
42621;BME280;28252;53.336;-6.298;2022-10-24T00:46:49;98943.22;;;21.89;79.04
42621;BME280;28252;53.336;-6.298;2022-10-24T00:47:22;98940.50;;;21.89;79.05
42621;BME280;28252;53.336;-6.298;2022-10-24T00:47:54;98943.00;;;21.90;79.09
42621;BME280;28252;53.336;-6.298;2022-10-24T00:48:59;98943.22;;;21.89;79.04
42621;BME280;28252;53.336;-6.298;2022-10-24T00:49:49;98937.78;;;21.89;79.10
42621;BME280;28252;53.336;-6.298;2022-10-24T00:50:20;98936.97;;;21.88;79.19
42621;BME280;28252;53.336;-6.298;2022-10-24T00:50:53;98937.78;;;21.89;78.96
42621;BME280;28252;53.336;-6.298;2022-10-24T00:51:29;98936.97;;;21.88;79.10
42621;BME280;28252;53.336;-6.298;2022-10-24T00:52:03;98941.53;;;21.88;79.09
42621;BME280;28252;53.336;-6.298;2022-10-24T00:52:37;98933.41;;;21.88;79.08
42621;BME280;28252;53.336;-6.298;2022-10-24T00:53:10;98943.44;;;21.87;79.18
42621;BME280;28252;53.336;-6.298;2022-10-24T00:53:42;98944.25;;;21.88;79.14
42621;BME280;28252;53.336;-6.298;2022-10-24T00:54:14;98936.97;;;21.88;79.21
42621;BME280;28252;53.336;-6.298;2022-10-24T00:54:45;98940.50;;;21.89;79.04
42621;BME280;28252;53.336;-6.298;2022-10-24T00:55:16;98938.81;;;21.88;79.04
42621;BME280;28252;53.336;-6.298;2022-10-24T00:55:49;98935.31;;;21.87;79.08
42621;BME280;28252;53.336;-6.298;2022-10-24T00:56:20;98944.25;;;21.88;78.91
42621;BME280;28252;53.336;-6.298;2022-10-24T00:56:55;98931.53;;;21.88;79.05
42621;BME280;28252;53.336;-6.298;2022-10-24T00:57:37;98939.91;;;21.87;79.04
42621;BME280;28252;53.336;-6.298;2022-10-24T00:58:09;98937.78;;;21.89;79.05
42621;BME280;28252;53.336;-6.298;2022-10-24T00:58:41;98936.97;;;21.88;78.90
42621;BME280;28252;53.336;-6.298;2022-10-24T00:59:13;98942.38;;;21.88;79.02
42621;BME280;28252;53.336;-6.298;2022-10-24T00:59:45;98940.50;;;21.89;78.95
42621;BME280;28252;53.336;-6.298;2022-10-24T01:00:20;98939.47;;;21.90;78.92
42621;BME280;28252;53.336;-6.298;2022-10-24T01:00:51;98936.97;;;21.88;78.95
42621;BME280;28252;53.336;-6.298;2022-10-24T01:01:25;98942.38;;;21.88;79.02
42621;BME280;28252;53.336;-6.298;2022-10-24T01:01:56;98936.13;;;21.88;79.05
42621;BME280;28252;53.336;-6.298;2022-10-24T01:02:27;98941.53;;;21.88;79.14
42621;BME280;28252;53.336;-6.298;2022-10-24T01:02:58;98940.72;;;21.87;79.08
42621;BME280;28252;53.336;-6.298;2022-10-24T01:03:29;98939.91;;;21.87;79.11
42621;BME280;28252;53.336;-6.298;2022-10-24T01:04:00;98946.97;;;21.88;79.16
42621;BME280;28252;53.336;-6.298;2022-10-24T01:04:31;98939.91;;;21.87;79.08
42621;BME280;28252;53.336;-6.298;2022-10-24T01:05:03;98942.63;;;21.87;78.96
42621;BME280;28252;53.336;-6.298;2022-10-24T01:05:35;98941.53;;;21.88;79.06
42621;BME280;28252;53.336;-6.298;2022-10-24T01:06:16;98948.03;;;21.87;79.05
42621;BME280;28252;53.336;-6.298;2022-10-24T01:07:07;98948.03;;;21.87;78.96
42621;BME280;28252;53.336;-6.298;2022-10-24T01:08:31;98939.91;;;21.87;78.88
42621;BME280;28252;53.336;-6.298;2022-10-24T01:11:22;98944.25;;;21.88;78.90
42621;BME280;28252;53.336;-6.298;2022-10-24T01:15:37;98946.97;;;21.88;78.80
42621;BME280;28252;53.336;-6.298;2022-10-24T01:16:17;98940.94;;;21.86;78.84
42621;BME280;28252;53.336;-6.298;2022-10-24T01:16:57;98945.31;;;21.87;78.72
42621;BME280;28252;53.336;-6.298;2022-10-24T01:17:43;98945.31;;;21.87;78.87
42621;BME280;28252;53.336;-6.298;2022-10-24T01:18:52;98943.66;;;21.86;78.77
42621;BME280;28252;53.336;-6.298;2022-10-24T01:19:36;98942.84;;;21.85;78.69
42621;BME280;28252;53.336;-6.298;2022-10-24T01:21:01;98952.84;;;21.85;78.77
42621;BME280;28252;53.336;-6.298;2022-10-24T01:21:35;98947.44;;;21.85;78.76
42621;BME280;28252;53.336;-6.298;2022-10-24T01:22:20;98947.44;;;21.85;78.75
42621;BME280;28252;53.336;-6.298;2022-10-24T01:22:58;98942.00;;;21.85;78.73
42621;BME280;28252;53.336;-6.298;2022-10-24T01:25:08;98950.97;;;21.85;78.55
42621;BME280;28252;53.336;-6.298;2022-10-24T01:27:39;98942.00;;;21.85;78.50
42621;BME280;28252;53.336;-6.298;2022-10-24T01:28:14;98946.34;;;21.86;78.47
42621;BME280;28252;53.336;-6.298;2022-10-24T01:28:52;98947.44;;;21.85;78.54
42621;BME280;28252;53.336;-6.298;2022-10-24T01:30:17;98944.94;;;21.83;78.41
42621;BME280;28252;53.336;-6.298;2022-10-24T01:30:51;98947.44;;;21.85;78.34
42621;BME280;28252;53.336;-6.298;2022-10-24T01:31:32;98941.38;;;21.82;78.29
42621;BME280;28252;53.336;-6.298;2022-10-24T01:32:06;98945.75;;;21.83;78.50
42621;BME280;28252;53.336;-6.298;2022-10-24T01:33:02;98944.09;;;21.82;78.35
42621;BME280;28252;53.336;-6.298;2022-10-24T01:33:35;98943.28;;;21.82;78.44
42621;BME280;28252;53.336;-6.298;2022-10-24T01:34:09;98947.88;;;21.81;78.38
42621;BME280;28252;53.336;-6.298;2022-10-24T01:34:51;98945.97;;;21.82;78.38
42621;BME280;28252;53.336;-6.298;2022-10-24T01:35:28;98943.06;;;21.83;78.26
42621;BME280;28252;53.336;-6.298;2022-10-24T01:36:25;98947.66;;;21.83;78.35
42621;BME280;28252;53.336;-6.298;2022-10-24T01:37:08;98949.72;;;21.81;78.11
42621;BME280;28252;53.336;-6.298;2022-10-24T01:38:49;98949.50;;;21.82;78.16
42621;BME280;28252;53.336;-6.298;2022-10-24T01:39:21;98945.16;;;21.81;78.06
42621;BME280;28252;53.336;-6.298;2022-10-24T01:39:58;98950.59;;;21.81;78.23
42621;BME280;28252;53.336;-6.298;2022-10-24T01:40:35;98948.69;;;21.82;78.09
42621;BME280;28252;53.336;-6.298;2022-10-24T01:41:10;98949.50;;;21.82;78.04
42621;BME280;28252;53.336;-6.298;2022-10-24T01:41:41;98949.50;;;21.82;78.17
42621;BME280;28252;53.336;-6.298;2022-10-24T01:42:13;98949.50;;;21.82;78.00
42621;BME280;28252;53.336;-6.298;2022-10-24T01:42:45;98950.59;;;21.81;77.94
42621;BME280;28252;53.336;-6.298;2022-10-24T01:43:22;98946.19;;;21.80;78.13
42621;BME280;28252;53.336;-6.298;2022-10-24T01:44:36;98950.81;;;21.80;77.87
42621;BME280;28252;53.336;-6.298;2022-10-24T01:45:09;98947.88;;;21.81;78.04
42621;BME280;28252;53.336;-6.298;2022-10-24T01:45:44;98954.13;;;21.82;77.90
42621;BME280;28252;53.336;-6.298;2022-10-24T01:46:19;98951.63;;;21.80;77.89
42621;BME280;28252;53.336;-6.298;2022-10-24T01:46:54;98957.03;;;21.80;77.88
42621;BME280;28252;53.336;-6.298;2022-10-24T01:47:27;98952.44;;;21.81;77.88
42621;BME280;28252;53.336;-6.298;2022-10-24T01:47:59;98952.44;;;21.81;77.99
42621;BME280;28252;53.336;-6.298;2022-10-24T01:48:33;98957.88;;;21.81;77.98
42621;BME280;28252;53.336;-6.298;2022-10-24T01:49:07;98952.44;;;21.81;77.93
42621;BME280;28252;53.336;-6.298;2022-10-24T01:49:42;98953.28;;;21.81;77.88
42621;BME280;28252;53.336;-6.298;2022-10-24T01:50:15;98954.34;;;21.80;77.76
42621;BME280;28252;53.336;-6.298;2022-10-24T01:50:48;98951.63;;;21.80;77.85
42621;BME280;28252;53.336;-6.298;2022-10-24T01:51:23;98957.03;;;21.80;77.84
42621;BME280;28252;53.336;-6.298;2022-10-24T01:51:56;98945.38;;;21.80;77.69
42621;BME280;28252;53.336;-6.298;2022-10-24T01:52:30;98947.28;;;21.79;77.80
42621;BME280;28252;53.336;-6.298;2022-10-24T01:53:02;98945.38;;;21.80;77.72
42621;BME280;28252;53.336;-6.298;2022-10-24T01:53:34;98947.28;;;21.79;77.63
42621;BME280;28252;53.336;-6.298;2022-10-24T01:54:06;98955.41;;;21.79;77.84
42621;BME280;28252;53.336;-6.298;2022-10-24T01:54:37;98947.28;;;21.79;77.73
42621;BME280;28252;53.336;-6.298;2022-10-24T01:55:08;98954.56;;;21.79;77.62
42621;BME280;28252;53.336;-6.298;2022-10-24T01:55:40;98954.56;;;21.79;77.69
42621;BME280;28252;53.336;-6.298;2022-10-24T01:56:12;98955.41;;;21.79;77.71
42621;BME280;28252;53.336;-6.298;2022-10-24T01:56:43;98957.03;;;21.80;77.75
42621;BME280;28252;53.336;-6.298;2022-10-24T01:57:14;98955.41;;;21.79;77.59
42621;BME280;28252;53.336;-6.298;2022-10-24T01:57:45;98954.56;;;21.79;77.69
42621;BME280;28252;53.336;-6.298;2022-10-24T01:58:16;98955.41;;;21.79;77.46
42621;BME280;28252;53.336;-6.298;2022-10-24T01:58:46;98956.22;;;21.80;77.50
42621;BME280;28252;53.336;-6.298;2022-10-24T02:00:00;98953.72;;;21.78;77.60
42621;BME280;28252;53.336;-6.298;2022-10-24T02:00:31;98953.50;;;21.80;77.52
42621;BME280;28252;53.336;-6.298;2022-10-24T02:01:04;98953.72;;;21.78;77.52
42621;BME280;28252;53.336;-6.298;2022-10-24T02:01:37;98959.16;;;21.78;77.71
42621;BME280;28252;53.336;-6.298;2022-10-24T02:02:42;98952.91;;;21.78;77.70
42621;BME280;28252;53.336;-6.298;2022-10-24T02:03:55;98959.38;;;21.77;77.61
42621;BME280;28252;53.336;-6.298;2022-10-24T02:04:28;98954.78;;;21.77;77.52
42621;BME280;28252;53.336;-6.298;2022-10-24T02:05:04;98957.47;;;21.77;77.53
42621;BME280;28252;53.336;-6.298;2022-10-24T02:05:38;98963.75;;;21.78;77.48
42621;BME280;28252;53.336;-6.298;2022-10-24T02:06:15;98953.72;;;21.78;77.41
42621;BME280;28252;53.336;-6.298;2022-10-24T02:06:47;98957.47;;;21.77;77.61
42621;BME280;28252;53.336;-6.298;2022-10-24T02:07:19;98952.06;;;21.77;77.42
42621;BME280;28252;53.336;-6.298;2022-10-24T02:07:52;98945.00;;;21.76;77.41
42621;BME280;28252;53.336;-6.298;2022-10-24T02:08:26;98958.34;;;21.78;77.51
42621;BME280;28252;53.336;-6.298;2022-10-24T02:09:03;98957.47;;;21.77;77.39
42621;BME280;28252;53.336;-6.298;2022-10-24T02:09:36;98958.56;;;21.76;77.44
42621;BME280;28252;53.336;-6.298;2022-10-24T02:10:09;98957.47;;;21.77;77.42
42621;BME280;28252;53.336;-6.298;2022-10-24T02:10:49;98962.91;;;21.77;77.41
42621;BME280;28252;53.336;-6.298;2022-10-24T02:11:22;98959.16;;;21.78;77.26
42621;BME280;28252;53.336;-6.298;2022-10-24T02:11:53;98964.56;;;21.78;77.25
42621;BME280;28252;53.336;-6.298;2022-10-24T02:12:26;98953.72;;;21.78;77.27
42621;BME280;28252;53.336;-6.298;2022-10-24T02:12:59;98956.44;;;21.78;77.18
42621;BME280;28252;53.336;-6.298;2022-10-24T02:13:34;98958.34;;;21.78;77.25
42621;BME280;28252;53.336;-6.298;2022-10-24T02:14:29;98970.00;;;21.78;77.37
42621;BME280;28252;53.336;-6.298;2022-10-24T02:15:06;98962.91;;;21.77;77.31
42621;BME280;28252;53.336;-6.298;2022-10-24T02:15:41;98962.09;;;21.77;77.40
42621;BME280;28252;53.336;-6.298;2022-10-24T02:16:16;98961.25;;;21.76;77.23
42621;BME280;28252;53.336;-6.298;2022-10-24T02:16:47;98959.38;;;21.77;77.25
42621;BME280;28252;53.336;-6.298;2022-10-24T02:17:18;98964.56;;;21.78;77.18
42621;BME280;28252;53.336;-6.298;2022-10-24T02:17:50;98961.25;;;21.76;77.13
42621;BME280;28252;53.336;-6.298;2022-10-24T02:18:21;98958.56;;;21.76;77.07
42621;BME280;28252;53.336;-6.298;2022-10-24T02:18:53;98954.19;;;21.75;77.18
42621;BME280;28252;53.336;-6.298;2022-10-24T02:19:24;98963.97;;;21.76;77.10
42621;BME280;28252;53.336;-6.298;2022-10-24T02:19:55;98960.41;;;21.76;77.16
42621;BME280;28252;53.336;-6.298;2022-10-24T02:20:32;98963.97;;;21.76;77.04
42621;BME280;28252;53.336;-6.298;2022-10-24T02:21:18;98966.69;;;21.76;77.02
42621;BME280;28252;53.336;-6.298;2022-10-24T02:22:01;98961.25;;;21.76;76.96
42621;BME280;28252;53.336;-6.298;2022-10-24T02:22:39;98961.25;;;21.76;77.13
42621;BME280;28252;53.336;-6.298;2022-10-24T02:23:16;98966.69;;;21.76;77.11
42621;BME280;28252;53.336;-6.298;2022-10-24T02:25:12;98956.66;;;21.77;76.71
42621;BME280;28252;53.336;-6.298;2022-10-24T02:25:47;98961.25;;;21.76;77.12
42621;BME280;28252;53.336;-6.298;2022-10-24T02:26:25;98958.56;;;21.76;76.94
42621;BME280;28252;53.336;-6.298;2022-10-24T02:27:01;98961.25;;;21.76;76.97
42621;BME280;28252;53.336;-6.298;2022-10-24T02:27:34;98959.59;;;21.75;77.06
42621;BME280;28252;53.336;-6.298;2022-10-24T02:28:40;98963.38;;;21.74;77.00
42621;BME280;28252;53.336;-6.298;2022-10-24T02:30:03;98954.19;;;21.75;77.05
42621;BME280;28252;53.336;-6.298;2022-10-24T02:30:37;98965.00;;;21.75;76.86
42621;BME280;28252;53.336;-6.298;2022-10-24T02:31:16;98956.88;;;21.75;77.04
42621;BME280;28252;53.336;-6.298;2022-10-24T02:31:52;98956.06;;;21.75;76.94
42621;BME280;28252;53.336;-6.298;2022-10-24T02:32:26;98957.97;;;21.74;76.95
42621;BME280;28252;53.336;-6.298;2022-10-24T02:32:58;98954.19;;;21.75;76.98
42621;BME280;28252;53.336;-6.298;2022-10-24T02:33:30;98962.31;;;21.75;77.01
42621;BME280;28252;53.336;-6.298;2022-10-24T02:34:04;98954.19;;;21.75;76.90
42621;BME280;28252;53.336;-6.298;2022-10-24T02:34:36;98960.66;;;21.74;77.04
42621;BME280;28252;53.336;-6.298;2022-10-24T02:35:08;98952.53;;;21.74;77.04
42621;BME280;28252;53.336;-6.298;2022-10-24T02:35:40;98951.69;;;21.74;76.95
42621;BME280;28252;53.336;-6.298;2022-10-24T02:36:12;98954.41;;;21.74;76.93
42621;BME280;28252;53.336;-6.298;2022-10-24T02:36:45;98957.97;;;21.74;77.05
42621;BME280;28252;53.336;-6.298;2022-10-24T02:37:18;98952.53;;;21.74;76.96
42621;BME280;28252;53.336;-6.298;2022-10-24T02:37:50;98957.97;;;21.74;76.87
42621;BME280;28252;53.336;-6.298;2022-10-24T02:38:28;98948.97;;;21.74;76.95
42621;BME280;28252;53.336;-6.298;2022-10-24T02:39:00;98952.53;;;21.74;76.89
42621;BME280;28252;53.336;-6.298;2022-10-24T02:39:32;98957.09;;;21.74;76.91
42621;BME280;28252;53.336;-6.298;2022-10-24T02:40:04;98953.34;;;21.75;76.86
42621;BME280;28252;53.336;-6.298;2022-10-24T02:40:37;98950.03;;;21.73;76.89
42621;BME280;28252;53.336;-6.298;2022-10-24T02:41:13;98950.88;;;21.73;76.87
42621;BME280;28252;53.336;-6.298;2022-10-24T02:41:45;98956.28;;;21.73;76.93
42621;BME280;28252;53.336;-6.298;2022-10-24T02:42:17;98952.53;;;21.74;76.79
42621;BME280;28252;53.336;-6.298;2022-10-24T02:42:50;98949.19;;;21.72;76.89
42621;BME280;28252;53.336;-6.298;2022-10-24T02:43:22;98949.19;;;21.72;77.00
42621;BME280;28252;53.336;-6.298;2022-10-24T02:43:53;98950.03;;;21.73;76.81
42621;BME280;28252;53.336;-6.298;2022-10-24T02:44:24;98951.91;;;21.72;76.95
42621;BME280;28252;53.336;-6.298;2022-10-24T02:44:56;98953.56;;;21.73;76.77
42621;BME280;28252;53.336;-6.298;2022-10-24T02:45:28;98943.78;;;21.72;76.81
42621;BME280;28252;53.336;-6.298;2022-10-24T02:45:59;98949.19;;;21.72;76.92
42621;BME280;28252;53.336;-6.298;2022-10-24T02:46:30;98950.88;;;21.73;76.88
42621;BME280;28252;53.336;-6.298;2022-10-24T02:47:02;98948.16;;;21.73;76.81
42621;BME280;28252;53.336;-6.298;2022-10-24T02:47:34;98951.91;;;21.72;76.75
42621;BME280;28252;53.336;-6.298;2022-10-24T02:48:07;98947.34;;;21.73;76.72
42621;BME280;28252;53.336;-6.298;2022-10-24T02:48:40;98944.63;;;21.73;76.89
42621;BME280;28252;53.336;-6.298;2022-10-24T02:49:12;98951.91;;;21.72;76.68
42621;BME280;28252;53.336;-6.298;2022-10-24T02:49:43;98948.38;;;21.72;76.75
42621;BME280;28252;53.336;-6.298;2022-10-24T02:50:14;98943.78;;;21.72;76.84
42621;BME280;28252;53.336;-6.298;2022-10-24T02:50:45;98947.56;;;21.71;76.71
42621;BME280;28252;53.336;-6.298;2022-10-24T02:51:17;98943.78;;;21.72;76.85
42621;BME280;28252;53.336;-6.298;2022-10-24T02:51:48;98942.13;;;21.71;76.84
42621;BME280;28252;53.336;-6.298;2022-10-24T02:52:20;98950.25;;;21.71;76.78
42621;BME280;28252;53.336;-6.298;2022-10-24T02:52:53;98947.56;;;21.71;76.79
42621;BME280;28252;53.336;-6.298;2022-10-24T02:53:24;98945.66;;;21.72;76.72
42621;BME280;28252;53.336;-6.298;2022-10-24T02:53:56;98947.56;;;21.71;76.83
42621;BME280;28252;53.336;-6.298;2022-10-24T02:54:27;98946.72;;;21.71;76.75
42621;BME280;28252;53.336;-6.298;2022-10-24T02:54:58;98940.47;;;21.70;76.74
42621;BME280;28252;53.336;-6.298;2022-10-24T02:55:29;98947.56;;;21.71;76.69
42621;BME280;28252;53.336;-6.298;2022-10-24T02:56:00;98952.97;;;21.71;76.76
42621;BME280;28252;53.336;-6.298;2022-10-24T02:56:31;98944.00;;;21.71;76.71
42621;BME280;28252;53.336;-6.298;2022-10-24T02:57:02;98947.56;;;21.71;76.67
42621;BME280;28252;53.336;-6.298;2022-10-24T02:57:33;98951.31;;;21.70;76.52
42621;BME280;28252;53.336;-6.298;2022-10-24T02:58:04;98945.88;;;21.70;76.67
42621;BME280;28252;53.336;-6.298;2022-10-24T02:58:35;98943.19;;;21.70;76.78
42621;BME280;28252;53.336;-6.298;2022-10-24T02:59:06;98941.28;;;21.71;76.59
42621;BME280;28252;53.336;-6.298;2022-10-24T02:59:37;98944.84;;;21.71;76.69
42621;BME280;28252;53.336;-6.298;2022-10-24T03:00:08;98944.00;;;21.71;76.68
42621;BME280;28252;53.336;-6.298;2022-10-24T03:00:39;98940.47;;;21.70;76.74
42621;BME280;28252;53.336;-6.298;2022-10-24T03:01:10;98939.66;;;21.70;76.61
42621;BME280;28252;53.336;-6.298;2022-10-24T03:01:41;98940.47;;;21.70;76.65
42621;BME280;28252;53.336;-6.298;2022-10-24T03:02:12;98945.06;;;21.70;76.63
42621;BME280;28252;53.336;-6.298;2022-10-24T03:02:43;98943.19;;;21.70;76.65
42621;BME280;28252;53.336;-6.298;2022-10-24T03:03:14;98945.88;;;21.70;76.62
42621;BME280;28252;53.336;-6.298;2022-10-24T03:03:45;98941.53;;;21.69;76.63
42621;BME280;28252;53.336;-6.298;2022-10-24T03:04:16;98935.03;;;21.70;76.61
42621;BME280;28252;53.336;-6.298;2022-10-24T03:04:47;98942.34;;;21.70;76.67
42621;BME280;28252;53.336;-6.298;2022-10-24T03:05:18;98936.13;;;21.69;76.59
42621;BME280;28252;53.336;-6.298;2022-10-24T03:05:49;98934.22;;;21.70;76.67
42621;BME280;28252;53.336;-6.298;2022-10-24T03:06:19;98933.41;;;21.69;76.61
42621;BME280;28252;53.336;-6.298;2022-10-24T03:06:50;98948.81;;;21.69;76.56
42621;BME280;28252;53.336;-6.298;2022-10-24T03:07:22;98938.81;;;21.69;76.59
42621;BME280;28252;53.336;-6.298;2022-10-24T03:07:53;98938.81;;;21.69;76.51
42621;BME280;28252;53.336;-6.298;2022-10-24T03:08:24;98938.81;;;21.69;76.46
42621;BME280;28252;53.336;-6.298;2022-10-24T03:08:55;98939.66;;;21.70;76.59
42621;BME280;28252;53.336;-6.298;2022-10-24T03:09:26;98937.97;;;21.69;76.64
42621;BME280;28252;53.336;-6.298;2022-10-24T03:09:57;98940.47;;;21.70;76.54
42621;BME280;28252;53.336;-6.298;2022-10-24T03:10:28;98945.06;;;21.70;76.59
42621;BME280;28252;53.336;-6.298;2022-10-24T03:10:59;98938.81;;;21.69;76.69
42621;BME280;28252;53.336;-6.298;2022-10-24T03:11:30;98944.25;;;21.69;76.78
42621;BME280;28252;53.336;-6.298;2022-10-24T03:12:01;98946.97;;;21.69;76.81
42621;BME280;28252;53.336;-6.298;2022-10-24T03:12:32;98939.66;;;21.70;76.75